Time;durP1;ratioP1;P1;durP2;ratioP2;P2;SDS_P1;SDS_P2;PMS_P1;PMS_P2;Temp;Humidity;BMP_temperature;BMP_pressure;BME280_temperature;BME280_humidity;BME280_pressure;Samples;Min_cycle;Max_cycle;Signal;HPM_P1;HPM_P2
2021/04/19 00:02:05;;;;;;;10.70;5.77;;;10.10;99.90;;;;;;5035863;28;20215;-52
2021/04/19 00:04:32;;;;;;;12.00;6.50;;;10.20;99.90;;;;;;5033299;28;20643;-53
2021/04/19 00:06:59;;;;;;;13.13;5.17;;;10.20;99.90;;;;;;5031721;28;20203;-53
2021/04/19 00:09:26;;;;;;;10.13;5.70;;;10.20;99.90;;;;;;5028411;28;20248;-53
2021/04/19 00:11:52;;;;;;;10.10;6.07;;;10.20;99.90;;;;;;5037261;28;20282;-53
2021/04/19 00:14:18;;;;;;;7.37;5.83;;;10.30;99.90;;;;;;5033191;28;20201;-53
2021/04/19 00:16:45;;;;;;;9.30;6.50;;;10.20;99.90;;;;;;5027017;28;20263;-53
2021/04/19 00:19:11;;;;;;;10.47;5.93;;;10.30;99.90;;;;;;5036123;28;20212;-53
2021/04/19 00:21:38;;;;;;;8.63;5.30;;;10.30;99.90;;;;;;5033672;28;20259;-52
2021/04/19 00:24:04;;;;;;;13.70;5.77;;;10.20;99.90;;;;;;5029803;28;20204;-53
2021/04/19 00:26:31;;;;;;;11.20;6.50;;;10.20;99.90;;;;;;5031665;28;20264;-53
2021/04/19 00:28:57;;;;;;;9.93;5.50;;;10.20;99.90;;;;;;5030841;28;20207;-52
2021/04/19 00:31:23;;;;;;;9.77;6.03;;;10.20;99.90;;;;;;5035862;28;20192;-52
2021/04/19 00:33:50;;;;;;;8.20;5.37;;;10.10;99.90;;;;;;5034884;28;20269;-52
2021/04/19 00:36:17;;;;;;;10.57;5.33;;;10.20;99.90;;;;;;5031497;28;20838;-52
2021/04/19 00:38:43;;;;;;;6.53;5.40;;;10.00;99.90;;;;;;5031128;28;20224;-52
2021/04/19 00:41:11;;;;;;;9.33;6.13;;;9.70;99.90;;;;;;5026199;28;20472;-52
2021/04/19 00:43:39;;;;;;;9.37;5.63;;;9.90;99.90;;;;;;5031694;28;20724;-52
2021/04/19 00:46:05;;;;;;;11.67;7.57;;;9.70;99.90;;;;;;5030398;28;20226;-52
2021/04/19 00:48:35;;;;;;;12.03;6.43;;;9.70;99.90;;;;;;5033555;28;20259;-52
2021/04/19 00:51:04;;;;;;;9.80;6.03;;;9.90;99.90;;;;;;5029276;28;20205;-52
2021/04/19 00:53:30;;;;;;;7.53;5.63;;;9.90;99.90;;;;;;5031470;28;20300;-52
2021/04/19 00:55:57;;;;;;;11.67;6.03;;;9.90;99.90;;;;;;5030101;28;20192;-52
2021/04/19 00:58:27;;;;;;;11.37;5.67;;;10.00;99.90;;;;;;5029802;28;20269;-51
2021/04/19 01:00:54;;;;;;;7.10;5.20;;;9.90;99.90;;;;;;5038466;28;20230;-52
2021/04/19 01:03:22;;;;;;;13.23;6.63;;;9.60;99.90;;;;;;5033740;28;20288;-52
2021/04/19 01:05:49;;;;;;;10.37;6.10;;;9.50;99.90;;;;;;5037214;28;20629;-52
2021/04/19 01:08:16;;;;;;;11.77;5.60;;;9.50;99.90;;;;;;5028651;28;20304;-52
2021/04/19 01:10:43;;;;;;;11.63;5.83;;;9.60;99.90;;;;;;5035912;28;20237;-52
2021/04/19 01:13:10;;;;;;;10.63;6.37;;;9.60;99.90;;;;;;5036647;28;20321;-53
2021/04/19 01:15:37;;;;;;;7.57;5.23;;;9.40;99.90;;;;;;5031333;28;20227;-52
2021/04/19 01:18:04;;;;;;;7.43;5.80;;;9.30;99.90;;;;;;5036825;28;20313;-52
2021/04/19 01:20:35;;;;;;;8.67;5.77;;;9.50;99.90;;;;;;5036411;28;20625;-52
2021/04/19 01:23:02;;;;;;;8.13;6.00;;;9.50;99.90;;;;;;5028556;28;20282;-53
2021/04/19 01:25:29;;;;;;;10.37;5.20;;;9.40;99.90;;;;;;5036376;28;21124;-52
2021/04/19 01:27:57;;;;;;;11.97;6.47;;;9.20;99.90;;;;;;5033206;28;20225;-53
2021/04/19 01:30:36;;;;;;;10.10;5.50;;;9.20;99.90;;;;;;5037157;28;20200;-52
2021/04/19 01:33:04;;;;;;;9.53;6.00;;;9.50;99.90;;;;;;5034376;28;20197;-53
2021/04/19 01:35:31;;;;;;;7.63;5.70;;;9.50;99.90;;;;;;5028897;28;20212;-53
2021/04/19 01:37:58;;;;;;;8.53;5.53;;;9.50;99.90;;;;;;5036064;28;20293;-52
2021/04/19 01:40:27;;;;;;;8.33;5.63;;;9.50;99.90;;;;;;5034418;28;20196;-52
2021/04/19 01:42:54;;;;;;;6.57;5.57;;;9.60;99.90;;;;;;5036371;28;20265;-52
2021/04/19 01:45:20;;;;;;;8.63;5.53;;;9.60;99.90;;;;;;5029155;28;20195;-53
2021/04/19 01:47:47;;;;;;;9.43;5.13;;;9.30;99.90;;;;;;5039146;28;20299;-53
2021/04/19 01:50:20;;;;;;;11.83;5.87;;;9.40;99.90;;;;;;5032016;28;20700;-52
2021/04/19 01:52:47;;;;;;;8.00;5.33;;;9.10;99.90;;;;;;5035509;28;20272;-52
2021/04/19 01:55:16;;;;;;;7.80;5.50;;;9.00;99.90;;;;;;5037903;28;20283;-52
2021/04/19 01:57:52;;;;;;;9.77;5.60;;;9.00;99.90;;;;;;5037919;28;20196;-52
2021/04/19 02:00:22;;;;;;;9.67;5.63;;;9.10;99.90;;;;;;5026629;28;20807;-53
2021/04/19 02:03:06;;;;;;;8.10;5.57;;;9.00;99.90;;;;;;5034560;28;20595;-52
2021/04/19 02:05:41;;;;;;;10.37;5.33;;;9.20;99.90;;;;;;5038103;28;20192;-52
2021/04/19 02:08:27;;;;;;;6.83;5.27;;;9.30;99.90;;;;;;5027881;28;20206;-53
2021/04/19 02:11:15;;;;;;;8.97;5.47;;;9.20;99.90;;;;;;5029655;28;20298;-53
2021/04/19 02:14:01;;;;;;;9.93;5.67;;;9.10;99.90;;;;;;5035010;28;20722;-52
2021/04/19 02:16:55;;;;;;;10.07;6.03;;;9.10;99.90;;;;;;5031906;28;20249;-52
2021/04/19 02:19:53;;;;;;;9.37;5.43;;;9.10;99.90;;;;;;5033581;28;20304;-52
2021/04/19 02:22:25;;;;;;;6.60;5.20;;;9.00;99.90;;;;;;5031173;28;20225;-52
2021/04/19 02:25:02;;;;;;;9.47;5.63;;;9.00;99.90;;;;;;5031474;28;20241;-52
2021/04/19 02:27:37;;;;;;;7.60;5.13;;;9.00;99.90;;;;;;5035387;28;20290;-52
2021/04/19 02:30:08;;;;;;;8.63;6.03;;;8.90;99.90;;;;;;5036268;28;20307;-52
2021/04/19 02:32:38;;;;;;;7.53;5.07;;;9.10;99.90;;;;;;5038051;28;20201;-52
2021/04/19 02:35:09;;;;;;;8.60;5.70;;;9.20;99.90;;;;;;5032546;28;20274;-53
2021/04/19 02:37:38;;;;;;;11.53;5.37;;;8.90;99.90;;;;;;5031232;28;20688;-53
2021/04/19 02:40:09;;;;;;;9.33;5.47;;;9.00;99.90;;;;;;5034598;28;20258;-53
2021/04/19 02:42:43;;;;;;;9.90;5.87;;;8.80;99.90;;;;;;5030701;28;20641;-52
2021/04/19 02:45:12;;;;;;;8.90;5.50;;;8.80;99.90;;;;;;5032868;28;20675;-52
2021/04/19 02:47:41;;;;;;;8.80;5.57;;;9.00;99.90;;;;;;5040265;28;20627;-52
2021/04/19 02:50:19;;;;;;;8.43;5.90;;;8.90;99.90;;;;;;5032699;28;20302;-52
2021/04/19 02:52:47;;;;;;;10.73;6.17;;;9.00;99.90;;;;;;5034635;28;20591;-52
2021/04/19 02:55:15;;;;;;;11.23;6.23;;;8.70;99.90;;;;;;5036630;28;20220;-52
2021/04/19 02:58:06;;;;;;;10.63;5.97;;;8.50;99.90;;;;;;5036650;28;20293;-52
2021/04/19 03:00:47;;;;;;;8.47;6.07;;;8.50;99.90;;;;;;5035804;28;20353;-52
2021/04/19 03:03:26;;;;;;;8.87;6.37;;;8.60;99.90;;;;;;5032767;28;20293;-52
2021/04/19 03:05:55;;;;;;;9.77;6.80;;;8.60;99.90;;;;;;5030122;28;20613;-52
2021/04/19 03:08:22;;;;;;;12.37;6.67;;;8.70;99.90;;;;;;5033657;28;20255;-52
2021/04/19 03:10:57;;;;;;;10.37;7.10;;;8.70;99.90;;;;;;5032624;28;20208;-52
2021/04/19 03:13:26;;;;;;;11.33;6.53;;;8.70;99.90;;;;;;5032870;28;20192;-52
2021/04/19 03:15:56;;;;;;;9.57;6.77;;;8.70;99.90;;;;;;5038289;28;20492;-52
2021/04/19 03:18:24;;;;;;;11.40;7.20;;;8.50;99.90;;;;;;5031730;28;20232;-52
2021/04/19 03:21:09;;;;;;;14.87;7.37;;;8.70;99.90;;;;;;5028497;28;20231;-53
2021/04/19 03:23:49;;;;;;;11.03;8.13;;;8.70;99.90;;;;;;5026812;28;20285;-53
2021/04/19 03:26:17;;;;;;;13.13;7.40;;;8.60;99.90;;;;;;5034603;28;20222;-53
2021/04/19 03:28:49;;;;;;;13.63;6.53;;;8.50;99.90;;;;;;5028959;28;20294;-53
2021/04/19 03:31:23;;;;;;;14.63;7.83;;;8.40;99.90;;;;;;5031527;28;20624;-53
2021/04/19 03:33:55;;;;;;;12.83;7.27;;;8.40;99.90;;;;;;5027429;28;20249;-53
2021/04/19 03:36:24;;;;;;;13.53;7.67;;;8.30;99.90;;;;;;5032085;28;20711;-52
2021/04/19 03:38:51;;;;;;;15.10;7.47;;;8.30;99.90;;;;;;5033828;28;20328;-53
2021/04/19 03:41:19;;;;;;;18.23;7.90;;;8.10;99.90;;;;;;5032805;28;20986;-52
2021/04/19 03:43:53;;;;;;;12.30;7.50;;;8.20;99.90;;;;;;5027815;28;20578;-53
2021/04/19 03:46:22;;;;;;;10.53;7.03;;;8.40;99.90;;;;;;5033876;28;20236;-53
2021/04/19 03:48:57;;;;;;;14.27;8.23;;;8.50;99.90;;;;;;5032173;28;20343;-53
2021/04/19 03:51:26;;;;;;;12.50;7.03;;;8.30;99.90;;;;;;5028421;28;20200;-53
2021/04/19 03:53:56;;;;;;;11.23;7.83;;;8.30;99.90;;;;;;5029753;28;20222;-52
2021/04/19 03:56:24;;;;;;;12.20;8.50;;;8.20;99.90;;;;;;5033379;28;20230;-52
2021/04/19 03:58:52;;;;;;;12.37;7.87;;;8.00;99.90;;;;;;5033380;28;20239;-52
2021/04/19 04:01:20;;;;;;;15.23;8.40;;;8.20;99.90;;;;;;5030073;28;20235;-53
2021/04/19 04:03:48;;;;;;;13.10;8.13;;;8.30;99.90;;;;;;5028995;28;20205;-52
2021/04/19 04:06:17;;;;;;;10.77;8.37;;;8.30;99.90;;;;;;5029836;28;20609;-53
2021/04/19 04:08:44;;;;;;;11.23;7.83;;;8.30;99.90;;;;;;5032050;28;20525;-53
2021/04/19 04:11:12;;;;;;;14.27;8.27;;;8.20;99.90;;;;;;5035078;28;20239;-52
2021/04/19 04:13:38;;;;;;;13.53;8.10;;;8.10;99.90;;;;;;5027731;28;20652;-53
2021/04/19 04:16:05;;;;;;;16.37;8.07;;;8.20;99.90;;;;;;5028846;28;20206;-53
2021/04/19 04:18:32;;;;;;;11.53;8.57;;;8.20;99.90;;;;;;5028269;28;20209;-53
2021/04/19 04:20:59;;;;;;;11.80;8.03;;;8.30;99.90;;;;;;5033768;28;20194;-53
2021/04/19 04:23:25;;;;;;;14.73;8.83;;;8.30;99.90;;;;;;5036597;28;20294;-52
2021/04/19 04:25:52;;;;;;;12.87;8.30;;;8.30;99.90;;;;;;5029699;28;20226;-53
2021/04/19 04:28:19;;;;;;;16.43;8.93;;;8.30;99.90;;;;;;5033137;28;20645;-53
2021/04/19 04:30:45;;;;;;;16.03;9.20;;;8.30;99.90;;;;;;5029269;28;20203;-53
2021/04/19 04:33:11;;;;;;;16.67;9.03;;;8.20;99.90;;;;;;5036072;28;20688;-53
2021/04/19 04:35:38;;;;;;;14.07;8.87;;;8.20;99.90;;;;;;5030980;28;20287;-52
2021/04/19 04:38:05;;;;;;;17.63;9.27;;;8.20;99.90;;;;;;5028600;28;20888;-53
2021/04/19 04:40:33;;;;;;;14.43;9.20;;;8.20;99.90;;;;;;5029856;28;20302;-53
2021/04/19 04:43:13;;;;;;;12.80;9.23;;;8.20;99.90;;;;;;5035980;28;20197;-52
2021/04/19 04:45:41;;;;;;;13.77;9.50;;;8.30;99.90;;;;;;5029527;28;20238;-53
2021/04/19 04:48:14;;;;;;;17.43;11.30;;;8.20;99.90;;;;;;5031240;28;20276;-53
2021/04/19 04:50:44;;;;;;;14.90;9.70;;;8.20;99.90;;;;;;5033307;28;20234;-53
2021/04/19 04:53:26;;;;;;;16.93;10.70;;;8.20;99.90;;;;;;5035625;28;20238;-52
2021/04/19 04:55:55;;;;;;;16.70;9.40;;;8.20;99.90;;;;;;5036985;28;20535;-53
2021/04/19 04:58:23;;;;;;;17.07;10.13;;;7.90;99.90;;;;;;5032346;28;20280;-52
2021/04/19 05:00:50;;;;;;;16.80;11.37;;;7.90;99.90;;;;;;5031184;28;20275;-53
2021/04/19 05:03:17;;;;;;;14.90;10.07;;;7.90;99.90;;;;;;5031166;28;20236;-52
2021/04/19 05:05:45;;;;;;;16.83;10.93;;;8.00;99.90;;;;;;5028607;28;21050;-53
2021/04/19 05:08:12;;;;;;;20.30;10.80;;;7.90;99.90;;;;;;5035543;28;20213;-53
2021/04/19 05:10:39;;;;;;;17.03;10.10;;;7.80;99.90;;;;;;5030671;28;20515;-52
2021/04/19 05:13:24;;;;;;;16.63;10.37;;;7.80;99.90;;;;;;5033686;28;20299;-53
2021/04/19 05:15:51;;;;;;;16.90;10.60;;;7.90;99.90;;;;;;5030050;28;20227;-53
2021/04/19 05:18:18;;;;;;;19.30;11.37;;;7.90;99.90;;;;;;5028916;28;20299;-53
2021/04/19 05:20:47;;;;;;;14.90;9.93;;;7.80;99.90;;;;;;5030243;28;20199;-52
2021/04/19 05:23:15;;;;;;;19.97;10.63;;;7.80;99.90;;;;;;5030929;28;20207;-52
2021/04/19 05:25:43;;;;;;;14.30;10.60;;;7.90;99.90;;;;;;5029313;28;20223;-52
2021/04/19 05:28:11;;;;;;;20.30;11.97;;;7.70;99.90;;;;;;5035525;28;20225;-52
2021/04/19 05:30:37;;;;;;;18.77;12.13;;;7.70;99.90;;;;;;5027356;28;20570;-52
2021/04/19 05:33:04;;;;;;;19.73;11.70;;;7.60;99.90;;;;;;5032354;28;20201;-52
2021/04/19 05:35:32;;;;;;;20.53;11.50;;;7.70;99.90;;;;;;5027809;28;20218;-52
2021/04/19 05:38:00;;;;;;;20.37;13.07;;;7.60;99.90;;;;;;5027635;28;20249;-52
2021/04/19 05:40:29;;;;;;;18.17;11.70;;;7.80;99.90;;;;;;5028406;28;20230;-52
2021/04/19 05:42:57;;;;;;;17.03;10.70;;;7.90;99.90;;;;;;5026236;28;20193;-53
2021/04/19 05:45:24;;;;;;;17.70;11.30;;;7.80;99.90;;;;;;5031765;28;20207;-52
2021/04/19 05:47:51;;;;;;;19.50;11.63;;;7.90;99.90;;;;;;5029481;28;20530;-52
2021/04/19 05:50:23;;;;;;;17.53;12.13;;;7.70;99.90;;;;;;5034682;28;20215;-52
2021/04/19 05:52:53;;;;;;;20.57;11.93;;;7.90;99.90;;;;;;5033659;28;20796;-52
2021/04/19 05:55:22;;;;;;;17.03;11.70;;;7.90;99.90;;;;;;5033192;28;20729;-52
2021/04/19 05:58:03;;;;;;;18.93;12.20;;;8.00;99.90;;;;;;5030710;28;20201;-52
2021/04/19 06:00:40;;;;;;;20.80;11.93;;;8.00;99.90;;;;;;5022750;28;20267;-52
2021/04/19 06:03:17;;;;;;;19.03;12.33;;;8.20;99.90;;;;;;5022531;28;20290;-54
2021/04/19 06:06:00;;;;;;;18.77;11.83;;;8.30;99.90;;;;;;5030525;28;20200;-52
2021/04/19 06:08:40;;;;;;;22.70;12.23;;;8.30;99.90;;;;;;5033049;28;21570;-51
2021/04/19 06:11:19;;;;;;;17.50;11.20;;;8.30;99.90;;;;;;5031183;28;20206;-52
2021/04/19 06:13:47;;;;;;;19.80;12.00;;;8.30;99.90;;;;;;5031484;28;20234;-52
2021/04/19 06:16:15;;;;;;;22.47;11.70;;;8.40;99.90;;;;;;5028532;28;20231;-52
2021/04/19 06:18:44;;;;;;;16.20;10.87;;;8.30;99.90;;;;;;5029888;28;20212;-52
2021/04/19 06:21:12;;;;;;;18.83;12.87;;;8.30;99.90;;;;;;5026396;28;20393;-53
2021/04/19 06:23:40;;;;;;;18.47;11.73;;;8.40;99.90;;;;;;5028323;28;20251;-52
2021/04/19 06:26:08;;;;;;;19.10;12.23;;;8.40;99.90;;;;;;5031359;28;20261;-52
2021/04/19 06:28:39;;;;;;;23.47;13.43;;;8.30;99.90;;;;;;5030188;28;20198;-52
2021/04/19 06:31:23;;;;;;;24.27;12.87;;;8.30;99.90;;;;;;5033357;28;20289;-52
2021/04/19 06:34:06;;;;;;;16.13;11.80;;;8.30;99.90;;;;;;5029055;28;20200;-52
2021/04/19 06:36:43;;;;;;;21.43;12.50;;;8.40;99.90;;;;;;5027744;28;20258;-52
2021/04/19 06:39:13;;;;;;;18.90;12.37;;;8.40;99.90;;;;;;5030668;28;20328;-52
2021/04/19 06:41:40;;;;;;;17.87;11.13;;;8.40;99.90;;;;;;5027454;28;20413;-52
2021/04/19 06:44:07;;;;;;;22.37;12.90;;;8.60;99.90;;;;;;5030002;28;20582;-52
2021/04/19 06:46:36;;;;;;;19.53;12.63;;;8.70;99.90;;;;;;5030142;28;20208;-52
2021/04/19 06:49:05;;;;;;;22.40;12.17;;;8.80;99.90;;;;;;5027119;28;20212;-51
2021/04/19 06:51:32;;;;;;;19.13;13.57;;;8.90;99.90;;;;;;5032645;28;20207;-51
2021/04/19 06:54:03;;;;;;;26.83;13.87;;;8.90;99.90;;;;;;5029294;28;20250;-52
2021/04/19 06:56:40;;;;;;;18.53;11.53;;;8.70;99.90;;;;;;5035028;28;20249;-52
2021/04/19 06:59:10;;;;;;;19.13;11.77;;;8.60;99.90;;;;;;5029535;28;20247;-52
2021/04/19 07:01:39;;;;;;;19.73;13.23;;;8.70;99.90;;;;;;5032614;28;20662;-52
2021/04/19 07:04:10;;;;;;;23.53;13.20;;;8.60;99.90;;;;;;5030413;28;20209;-51
2021/04/19 07:06:38;;;;;;;15.37;11.40;;;8.50;99.90;;;;;;5028358;28;20255;-52
2021/04/19 07:09:30;;;;;;;19.53;12.20;;;8.40;99.90;;;;;;5034215;28;20207;-52
2021/04/19 07:12:09;;;;;;;23.63;12.20;;;8.60;99.90;;;;;;5028887;28;20360;-52
2021/04/19 07:14:38;;;;;;;17.23;11.20;;;8.60;99.90;;;;;;5027952;28;20729;-52
2021/04/19 07:17:05;;;;;;;18.90;12.53;;;8.60;99.90;;;;;;5037840;28;20208;-52
2021/04/19 07:19:33;;;;;;;18.33;12.50;;;8.50;99.90;;;;;;5031319;28;20273;-52
2021/04/19 07:22:00;;;;;;;18.83;12.20;;;8.70;99.90;;;;;;5029088;28;20208;-52
2021/04/19 07:24:29;;;;;;;20.80;12.30;;;8.90;99.90;;;;;;5030308;28;20885;-52
2021/04/19 07:26:57;;;;;;;17.90;10.97;;;8.90;99.90;;;;;;5029202;28;20252;-52
2021/04/19 07:29:24;;;;;;;19.60;12.17;;;9.00;99.90;;;;;;5025079;28;20295;-52
2021/04/19 07:31:55;;;;;;;17.53;11.17;;;9.10;99.90;;;;;;5035300;28;20199;-52
2021/04/19 07:34:24;;;;;;;20.77;12.10;;;9.10;99.90;;;;;;5028224;28;20310;-54
2021/04/19 07:37:03;;;;;;;21.43;13.03;;;9.00;99.90;;;;;;5029074;28;20279;-52
2021/04/19 07:39:40;;;;;;;17.03;12.33;;;9.00;99.90;;;;;;5029408;28;20547;-52
2021/04/19 07:42:10;;;;;;;22.43;12.17;;;8.40;99.90;;;;;;5032889;28;20695;-52
2021/04/19 07:44:46;;;;;;;19.00;12.20;;;8.00;99.90;;;;;;5038667;28;20626;-52
2021/04/19 07:47:23;;;;;;;20.20;12.50;;;8.00;99.90;;;;;;5032182;28;20708;-52
2021/04/19 07:49:58;;;;;;;17.73;12.73;;;8.50;99.90;;;;;;5034036;28;20199;-52
2021/04/19 07:52:29;;;;;;;21.73;13.03;;;8.80;99.90;;;;;;5031147;28;20271;-52
2021/04/19 07:55:08;;;;;;;23.97;13.20;;;9.00;99.90;;;;;;5031252;28;20243;-52
2021/04/19 07:57:52;;;;;;;23.00;12.80;;;9.10;99.90;;;;;;5035898;28;20595;-52
2021/04/19 08:00:24;;;;;;;21.30;12.80;;;9.10;99.90;;;;;;5031936;28;20683;-52
2021/04/19 08:03:07;;;;;;;20.03;13.17;;;8.80;99.90;;;;;;5032651;28;20255;-52
2021/04/19 08:05:48;;;;;;;22.00;14.53;;;8.90;99.90;;;;;;5028237;28;20231;-52
2021/04/19 08:08:17;;;;;;;21.23;14.17;;;9.00;99.90;;;;;;5032286;28;20323;-52
2021/04/19 08:10:46;;;;;;;19.87;14.63;;;9.20;99.90;;;;;;5030998;28;20204;-52
2021/04/19 08:13:12;;;;;;;22.53;14.87;;;9.50;99.90;;;;;;5029300;28;20265;-52
2021/04/19 08:15:42;;;;;;;24.33;14.60;;;9.70;99.90;;;;;;5027350;28;20623;-52
2021/04/19 08:18:19;;;;;;;24.73;15.30;;;9.60;99.90;;;;;;5031418;28;20208;-52
2021/04/19 08:20:54;;;;;;;22.40;16.07;;;9.70;99.90;;;;;;5028211;28;20238;-52
2021/04/19 08:23:21;;;;;;;24.10;16.07;;;9.60;99.90;;;;;;5033485;28;20229;-52
2021/04/19 08:25:50;;;;;;;23.73;18.20;;;9.60;99.90;;;;;;5029584;28;20196;-52
2021/04/19 08:28:18;;;;;;;25.90;16.17;;;9.60;99.90;;;;;;5035170;28;20223;-52
2021/04/19 08:30:48;;;;;;;31.47;16.47;;;9.60;99.90;;;;;;5029113;28;20230;-52
2021/04/19 08:33:15;;;;;;;25.00;16.53;;;9.70;99.90;;;;;;5028414;28;20290;-52
2021/04/19 08:35:44;;;;;;;22.10;14.23;;;9.70;99.90;;;;;;5030146;28;20204;-52
2021/04/19 08:38:11;;;;;;;21.23;15.50;;;9.70;99.90;;;;;;5031782;28;20244;-52
2021/04/19 08:40:40;;;;;;;21.13;14.37;;;9.80;99.90;;;;;;5034889;28;20261;-52
2021/04/19 08:43:12;;;;;;;22.70;14.17;;;9.80;99.90;;;;;;5044605;28;20200;-52
2021/04/19 08:45:41;;;;;;;22.33;15.00;;;9.80;99.90;;;;;;5031974;28;20240;-52
2021/04/19 08:48:11;;;;;;;22.60;14.67;;;9.80;99.90;;;;;;5031872;28;20309;-52
2021/04/19 08:50:40;;;;;;;21.80;15.30;;;10.00;99.90;;;;;;5030517;28;20204;-52
2021/04/19 08:53:11;;;;;;;22.30;14.03;;;10.10;99.90;;;;;;5036224;28;20262;-52
2021/04/19 08:55:39;;;;;;;22.43;14.50;;;10.20;99.90;;;;;;5031346;28;20194;-52
2021/04/19 08:58:12;;;;;;;21.70;14.47;;;10.10;99.90;;;;;;5040889;28;21558;-52
2021/04/19 09:00:40;;;;;;;23.50;14.97;;;10.20;99.90;;;;;;5029196;28;20272;-52
2021/04/19 09:03:07;;;;;;;21.70;15.00;;;10.10;99.90;;;;;;5031172;28;20202;-52
2021/04/19 09:05:35;;;;;;;20.73;13.93;;;10.10;99.90;;;;;;5040764;28;20238;-52
2021/04/19 09:08:10;;;;;;;23.70;14.43;;;10.10;99.90;;;;;;5039076;28;20215;-52
2021/04/19 09:11:00;;;;;;;25.37;15.50;;;10.10;99.90;;;;;;5035651;28;20658;-52
2021/04/19 09:13:29;;;;;;;22.40;15.10;;;10.20;99.90;;;;;;5034334;28;20258;-53
2021/04/19 09:16:15;;;;;;;23.50;14.90;;;9.90;99.90;;;;;;5031207;28;20201;-52
2021/04/19 09:19:00;;;;;;;22.37;16.27;;;10.00;99.90;;;;;;5036708;28;20261;-52
2021/04/19 09:21:47;;;;;;;21.50;14.97;;;10.10;99.90;;;;;;5034308;28;20236;-52
2021/04/19 09:24:17;;;;;;;22.07;15.73;;;10.10;99.90;;;;;;5036161;28;20510;-52
2021/04/19 09:26:54;;;;;;;21.93;15.10;;;10.20;99.90;;;;;;5030275;28;20221;-52
2021/04/19 09:29:30;;;;;;;19.60;14.37;;;10.20;99.90;;;;;;5030813;28;20319;-52
2021/04/19 09:32:01;;;;;;;23.53;14.23;;;10.00;99.90;;;;;;5034164;28;20206;-52
2021/04/19 09:34:38;;;;;;;30.10;14.90;;;10.10;99.90;;;;;;5039989;28;20193;-52
2021/04/19 09:37:05;;;;;;;22.07;14.80;;;10.20;99.90;;;;;;5039630;28;20297;-52
2021/04/19 09:40:02;;;;;;;25.97;17.00;;;10.50;99.90;;;;;;5038434;28;20323;-52
2021/04/19 09:42:58;;;;;;;21.13;15.30;;;10.40;99.90;;;;;;5035287;28;20208;-52
2021/04/19 09:45:44;;;;;;;22.40;15.37;;;10.40;99.90;;;;;;5040278;28;20271;-52
2021/04/19 09:48:28;;;;;;;21.67;14.87;;;10.50;99.90;;;;;;5041393;28;20192;-52
2021/04/19 09:50:56;;;;;;;22.33;15.20;;;10.50;99.90;;;;;;5035231;28;20600;-52
2021/04/19 09:53:22;;;;;;;23.20;16.70;;;10.60;99.90;;;;;;5040283;28;20227;-52
2021/04/19 09:55:49;;;;;;;25.97;16.30;;;10.80;99.90;;;;;;5034112;28;20204;-52
2021/04/19 09:58:17;;;;;;;22.60;15.60;;;10.80;99.90;;;;;;5032919;28;20534;-52
2021/04/19 10:00:43;;;;;;;23.83;15.30;;;10.90;99.90;;;;;;5033510;28;20376;-52
2021/04/19 10:03:10;;;;;;;22.83;15.80;;;11.10;99.90;;;;;;5036418;28;20584;-52
2021/04/19 10:05:38;;;;;;;21.40;15.63;;;10.90;99.90;;;;;;5036783;28;20629;-52
2021/04/19 10:08:06;;;;;;;20.50;15.00;;;11.00;99.90;;;;;;5037356;28;20250;-52
2021/04/19 10:10:33;;;;;;;25.73;16.40;;;11.00;99.90;;;;;;5036361;28;20278;-52
2021/04/19 10:12:59;;;;;;;19.43;14.30;;;11.20;99.90;;;;;;5031915;28;20251;-52
2021/04/19 10:15:29;;;;;;;18.13;14.40;;;11.30;99.90;;;;;;5033094;28;20211;-52
2021/04/19 10:17:55;;;;;;;23.43;15.17;;;11.50;99.90;;;;;;5034920;28;20266;-52
2021/04/19 10:20:29;;;;;;;20.80;15.07;;;11.30;99.90;;;;;;5038201;28;20238;-52
2021/04/19 10:23:11;;;;;;;21.07;13.37;;;11.60;99.90;;;;;;5037274;28;20568;-52
2021/04/19 10:25:49;;;;;;;23.40;14.93;;;11.60;99.90;;;;;;5041781;28;20364;-52
2021/04/19 10:28:38;;;;;;;21.23;14.47;;;11.60;99.90;;;;;;5032968;28;20707;-52
2021/04/19 10:31:24;;;;;;;17.97;13.53;;;11.60;99.90;;;;;;5037497;28;20281;-52
2021/04/19 10:33:53;;;;;;;19.43;13.53;;;11.50;99.90;;;;;;5036369;28;20196;-52
2021/04/19 10:36:25;;;;;;;22.50;13.93;;;11.40;99.90;;;;;;5032541;28;20212;-52
2021/04/19 10:38:56;;;;;;;16.23;11.67;;;11.50;99.90;;;;;;5032994;28;20275;-52
2021/04/19 10:41:31;;;;;;;20.47;12.60;;;11.70;99.90;;;;;;5028949;28;20205;-52
2021/04/19 10:43:59;;;;;;;19.23;12.93;;;11.70;99.90;;;;;;5032403;28;20264;-52
2021/04/19 10:46:31;;;;;;;16.30;12.30;;;11.90;99.90;;;;;;5031731;28;20254;-52
2021/04/19 10:49:00;;;;;;;16.87;12.00;;;11.70;99.90;;;;;;5032530;28;20521;-52
2021/04/19 10:51:29;;;;;;;16.07;12.27;;;11.90;99.90;;;;;;5038169;28;20667;-52
2021/04/19 10:53:58;;;;;;;17.30;11.63;;;12.10;99.90;;;;;;5029796;28;20206;-52
2021/04/19 10:56:25;;;;;;;17.37;12.37;;;12.10;99.90;;;;;;5034362;28;20596;-52
2021/04/19 10:58:58;;;;;;;15.03;11.67;;;12.20;99.90;;;;;;5033390;28;20221;-52
2021/04/19 11:01:30;;;;;;;16.33;11.87;;;12.40;99.90;;;;;;5035368;28;20688;-52
2021/04/19 11:03:59;;;;;;;14.80;10.90;;;12.80;99.90;;;;;;5033647;28;20193;-52
2021/04/19 11:06:26;;;;;;;14.37;11.30;;;13.00;99.90;;;;;;5036395;28;20201;-52
2021/04/19 11:08:58;;;;;;;16.10;11.33;;;13.10;99.90;;;;;;5030802;28;20272;-52
2021/04/19 11:11:32;;;;;;;15.03;10.83;;;13.00;99.90;;;;;;5031349;28;20214;-53
2021/04/19 11:14:27;;;;;;;13.87;10.50;;;12.90;99.90;;;;;;5031153;28;20206;-52
2021/04/19 11:16:57;;;;;;;17.00;11.97;;;12.90;99.90;;;;;;5038335;28;20716;-52
2021/04/19 11:19:45;;;;;;;12.73;10.20;;;12.90;99.90;;;;;;5046663;28;20712;-52
2021/04/19 11:22:20;;;;;;;12.30;10.00;;;12.80;99.90;;;;;;5029225;28;20266;-52
2021/04/19 11:25:14;;;;;;;15.17;11.00;;;12.60;99.90;;;;;;5030858;28;20675;-52
2021/04/19 11:27:40;;;;;;;13.57;10.13;;;12.60;99.90;;;;;;5037823;28;20279;-52
2021/04/19 11:30:27;;;;;;;11.47;9.87;;;12.70;99.90;;;;;;5029846;28;20221;-52
2021/04/19 11:33:07;;;;;;;13.97;10.23;;;12.70;99.90;;;;;;5031227;28;20514;-52
2021/04/19 11:35:35;;;;;;;13.73;10.80;;;12.70;99.90;;;;;;5033344;28;20203;-52
2021/04/19 11:38:05;;;;;;;14.27;11.03;;;12.60;99.90;;;;;;5032933;28;20208;-52
2021/04/19 11:40:35;;;;;;;14.60;10.73;;;12.40;99.90;;;;;;5035234;28;20725;-52
2021/04/19 11:43:26;;;;;;;13.13;9.97;;;12.60;99.90;;;;;;5033012;28;20199;-52
2021/04/19 11:45:59;;;;;;;13.33;10.40;;;12.50;99.90;;;;;;5034253;28;20220;-52
2021/04/19 11:48:26;;;;;;;13.00;10.27;;;12.30;99.90;;;;;;5032271;28;20656;-51
2021/04/19 11:50:53;;;;;;;12.70;10.30;;;12.40;99.90;;;;;;5028019;28;20254;-52
2021/04/19 11:53:21;;;;;;;13.90;9.30;;;12.40;99.90;;;;;;5025814;28;20217;-52
2021/04/19 11:55:48;;;;;;;17.10;11.37;;;12.60;99.90;;;;;;5031881;28;20272;-52
2021/04/19 11:58:33;;;;;;;13.43;10.17;;;12.70;99.90;;;;;;5028821;28;20829;-51
2021/04/19 12:01:00;;;;;;;15.77;11.07;;;12.70;99.90;;;;;;5032299;28;20598;-52
2021/04/19 12:03:27;;;;;;;13.87;10.20;;;12.80;99.90;;;;;;5029087;28;20556;-52
2021/04/19 12:05:54;;;;;;;16.50;11.33;;;12.80;99.90;;;;;;5028170;28;20567;-52
2021/04/19 12:08:21;;;;;;;13.50;9.93;;;12.80;99.90;;;;;;5028719;28;20210;-52
2021/04/19 12:10:47;;;;;;;15.27;11.47;;;13.00;99.90;;;;;;5027067;28;20198;-52
2021/04/19 12:13:15;;;;;;;11.67;10.30;;;12.90;99.90;;;;;;5032845;28;20282;-52
2021/04/19 12:15:52;;;;;;;16.03;11.17;;;12.90;99.90;;;;;;5029573;28;20216;-52
2021/04/19 12:18:20;;;;;;;15.23;11.20;;;12.80;99.90;;;;;;5041794;28;20250;-52
2021/04/19 12:20:48;;;;;;;14.27;11.53;;;12.80;99.90;;;;;;5034409;28;20236;-52
2021/04/19 12:23:14;;;;;;;14.47;11.50;;;12.90;99.90;;;;;;5031415;28;20275;-51
2021/04/19 12:25:41;;;;;;;13.13;11.00;;;12.80;99.90;;;;;;5028293;28;20199;-52
2021/04/19 12:28:08;;;;;;;18.60;11.73;;;12.70;99.90;;;;;;5028553;28;20222;-51
2021/04/19 12:30:34;;;;;;;14.43;11.17;;;12.80;99.90;;;;;;5034282;28;20643;-51
2021/04/19 12:33:01;;;;;;;13.47;11.00;;;12.90;99.90;;;;;;5032634;28;20251;-52
2021/04/19 12:35:28;;;;;;;14.47;11.37;;;12.90;99.90;;;;;;5023413;28;20244;-52
2021/04/19 12:37:54;;;;;;;13.77;10.87;;;12.80;99.90;;;;;;5027429;28;20283;-52
2021/04/19 12:40:22;;;;;;;13.17;11.43;;;12.70;99.90;;;;;;5024279;28;20213;-52
2021/04/19 12:42:51;;;;;;;15.30;12.03;;;12.70;99.90;;;;;;5027246;28;20266;-52
2021/04/19 12:45:20;;;;;;;14.03;11.57;;;12.40;99.90;;;;;;5031250;28;20273;-52
2021/04/19 12:47:47;;;;;;;16.50;13.00;;;12.50;99.90;;;;;;5026886;28;20209;-52
2021/04/19 12:50:13;;;;;;;17.57;12.80;;;12.60;99.90;;;;;;5035071;28;20294;-52
2021/04/19 12:52:39;;;;;;;14.30;11.50;;;12.60;99.90;;;;;;5035954;28;20200;-52
2021/04/19 12:55:07;;;;;;;15.90;12.40;;;12.70;99.90;;;;;;5048595;28;20692;-52
2021/04/19 12:57:33;;;;;;;18.10;12.47;;;12.80;99.90;;;;;;5040699;28;20262;-52
2021/04/19 12:59:59;;;;;;;19.10;12.90;;;12.40;99.90;;;;;;5041802;28;20236;-52